Observation data for Dimmitt on 08/14/2019      Previous  Date  Next       Current Mesonet Observations  Soil Data  Daily Summary Page  Observations in Plain Language
KDMS 140500Z 11008KT 24/16 A3017 RMK A01 T02370158  RH  064%=      5-min Rain = 0
KDMS 140505Z 11009KT 24/16 A3017 RMK A01 T02370159  RH  065%=      5-min Rain = 0
KDMS 140510Z 11009KT 24/16 A3018 RMK A01 T02360159  RH  065%=      5-min Rain = 0
KDMS 140515Z 11009KT 24/16 A3018 RMK A01 T02360160  RH  066%=      5-min Rain = 0
KDMS 140520Z 11008KT 23/16 A3018 RMK A01 T02340160  RH  066%=      5-min Rain = 0
KDMS 140525Z 11008KT 23/16 A3018 RMK A01 T02330160  RH  066%=      5-min Rain = 0
KDMS 140530Z 10007KT 23/16 A3018 RMK A01 T02320160  RH  067%=      5-min Rain = 0
KDMS 140535Z 09007KT 23/16 A3018 RMK A01 T02300160  RH  068%=      5-min Rain = 0
KDMS 140540Z 09007KT 23/16 A3018 RMK A01 T02280159  RH  068%=      5-min Rain = 0
KDMS 140545Z 09007KT 23/16 A3019 RMK A01 T02270159  RH  068%=      5-min Rain = 0
KDMS 140550Z 08008KT 23/16 A3019 RMK A01 T02260159  RH  069%=      5-min Rain = 0
KDMS 140555Z 08008KT 23/16 A3019 RMK A01 T02260159  RH  069%=      5-min Rain = 0
KDMS 140600Z 08010KT 23/16 A302 RMK A01 T02260161  RH  070%=      5-min Rain = 0
KDMS 140605Z 08009KT 23/16 A302 RMK A01 T02250161  RH  070%=      5-min Rain = 0
KDMS 140610Z 07010KT 23/16 A302 RMK A01 T02260160  RH  070%=      5-min Rain = 0
KDMS 140615Z 07011KT 23/16 A302 RMK A01 T02260160  RH  070%=      5-min Rain = 0
KDMS 140620Z 08013KT 23/16 A302 RMK A01 T02260161  RH  070%=      5-min Rain = 0
KDMS 140625Z 07012KT 23/16 A3021 RMK A01 T02260162  RH  070%=      5-min Rain = 0
KDMS 140630Z 06012KT 23/16 A3021 RMK A01 T02250161  RH  071%=      5-min Rain = 0
KDMS 140635Z 07014KT 23/16 A3021 RMK A01 T02250162  RH  071%=      5-min Rain = 0
KDMS 140640Z 07013KT 23/16 A3022 RMK A01 T02250162  RH  071%=      5-min Rain = 0
KDMS 140645Z 07012KT 22/16 A3021 RMK A01 T02240162  RH  071%=      5-min Rain = 0
KDMS 140650Z 08011KT 22/16 A3021 RMK A01 T02230162  RH  072%=      5-min Rain = 0
KDMS 140655Z 07012KT 22/16 A3021 RMK A01 T02240162  RH  072%=      5-min Rain = 0
KDMS 140700Z 07012KT 22/16 A3021 RMK A01 T02240162  RH  071%=      5-min Rain = 0
KDMS 140705Z 07012KT 22/16 A3021 RMK A01 T02240162  RH  071%=      5-min Rain = 0
KDMS 140710Z 07011KT 22/16 A3021 RMK A01 T02230162  RH  071%=      5-min Rain = 0
KDMS 140715Z 08011KT 22/16 A302 RMK A01 T02230161  RH  072%=      5-min Rain = 0
KDMS 140720Z 07012KT 22/16 A302 RMK A01 T02220161  RH  072%=      5-min Rain = 0
KDMS 140725Z 07011KT 22/16 A3021 RMK A01 T02220161  RH  072%=      5-min Rain = 0
KDMS 140730Z 07011KT 22/16 A3021 RMK A01 T02220160  RH  071%=      5-min Rain = 0
KDMS 140735Z 07010KT 22/16 A3021 RMK A01 T02210160  RH  072%=      5-min Rain = 0
KDMS 140740Z 08009KT 22/16 A3021 RMK A01 T02200159  RH  072%=      5-min Rain = 0
KDMS 140745Z 08009KT 22/16 A3021 RMK A01 T02190160  RH  072%=      5-min Rain = 0
KDMS 140750Z 08008KT 22/16 A302 RMK A01 T02170160  RH  073%=      5-min Rain = 0
KDMS 140755Z 08008KT 22/16 A3021 RMK A01 T02160159  RH  074%=      5-min Rain = 0
KDMS 140800Z 08008KT 22/16 A302 RMK A01 T02150159  RH  074%=      5-min Rain = 0
KDMS 140805Z 07009KT 22/16 A302 RMK A01 T02150158  RH  074%=      5-min Rain = 0
KDMS 140810Z 08009KT 21/16 A302 RMK A01 T02140158  RH  074%=      5-min Rain = 0
KDMS 140815Z 07009KT 21/16 A302 RMK A01 T02130158  RH  074%=      5-min Rain = 0
KDMS 140820Z 07009KT 21/16 A302 RMK A01 T02140157  RH  074%=      5-min Rain = 0
KDMS 140825Z 07009KT 21/16 A302 RMK A01 T02140157  RH  073%=      5-min Rain = 0
KDMS 140830Z 06008KT 21/16 A302 RMK A01 T02130157  RH  074%=      5-min Rain = 0
KDMS 140835Z 06009KT 21/16 A302 RMK A01 T02130157  RH  074%=      5-min Rain = 0
KDMS 140840Z 05013KT 21/16 A302 RMK A01 T02110156  RH  074%=      5-min Rain = 0
KDMS 140845Z 05014KT 21/16 A3021 RMK A01 T02110158  RH  075%=      5-min Rain = 0
KDMS 140850Z 05014G19KT 21/16 A3021 RMK A01 T02090159  RH  077%=      5-min Rain = 0
KDMS 140855Z 05016KT 21/16 A3021 RMK A01 T02090159  RH  077%=      5-min Rain = 0
KDMS 140900Z 06015KT 21/16 A3021 RMK A01 T02070157  RH  076%=      5-min Rain = 0
KDMS 140905Z 05016KT 21/15 A3021 RMK A01 T02060154  RH  076%=      5-min Rain = 0
KDMS 140910Z 05016KT 20/15 A3021 RMK A01 T02040153  RH  076%=      5-min Rain = 0
KDMS 140915Z 06015KT 20/15 A3021 RMK A01 T02020150  RH  075%=      5-min Rain = 0
KDMS 140920Z 05015KT 20/15 A3021 RMK A01 T02010148  RH  075%=      5-min Rain = 0
KDMS 140925Z 05015KT 20/15 A3022 RMK A01 T02000145  RH  074%=      5-min Rain = 0
KDMS 140930Z 05013KT 20/14 A3022 RMK A01 T01970142  RH  073%=      5-min Rain = 0
KDMS 140935Z 05014G19KT 20/14 A3023 RMK A01 T01950138  RH  072%=      5-min Rain = 0
KDMS 140940Z 05014KT 19/14 A3023 RMK A01 T01940135  RH  071%=      5-min Rain = 0
KDMS 140945Z 04012KT 19/14 A3023 RMK A01 T01930135  RH  072%=      5-min Rain = 0
KDMS 140950Z 04014KT 19/13 A3023 RMK A01 T01920134  RH  072%=      5-min Rain = 0
KDMS 140955Z 04014KT 19/13 A3024 RMK A01 T01900130  RH  071%=      5-min Rain = 0
KDMS 141000Z 04014KT 19/13 A3024 RMK A01 T01890128  RH  070%=      5-min Rain = 0
KDMS 141005Z 04015KT 19/13 A3024 RMK A01 T01880128  RH  071%=      5-min Rain = 0
KDMS 141010Z 03015KT 19/13 A3024 RMK A01 T01870126  RH  070%=      5-min Rain = 0
KDMS 141015Z 03014KT 19/12 A3024 RMK A01 T01870124  RH  069%=      5-min Rain = 0
KDMS 141020Z 04013KT 19/12 A3024 RMK A01 T01860121  RH  069%=      5-min Rain = 0
KDMS 141025Z 04013KT 19/12 A3024 RMK A01 T01850119  RH  068%=      5-min Rain = 0
KDMS 141030Z 04013KT 19/12 A3024 RMK A01 T01850118  RH  067%=      5-min Rain = 0
KDMS 141035Z 04012KT 19/12 A3024 RMK A01 T01860117  RH  067%=      5-min Rain = 0
KDMS 141040Z 04012KT 19/12 A3024 RMK A01 T01860117  RH  066%=      5-min Rain = 0
KDMS 141045Z 04012KT 19/12 A3024 RMK A01 T01870116  RH  066%=      5-min Rain = 0
KDMS 141050Z 04012KT 19/12 A3025 RMK A01 T01870116  RH  065%=      5-min Rain = 0
KDMS 141055Z 04011KT 19/12 A3025 RMK A01 T01880116  RH  065%=      5-min Rain = 0
KDMS 141100Z 03013KT 19/12 A3025 RMK A01 T01880115  RH  065%=      5-min Rain = 0
KDMS 141105Z 03013KT 19/12 A3025 RMK A01 T01890116  RH  065%=      5-min Rain = 0
KDMS 141110Z 04012KT 19/12 A3026 RMK A01 T01890116  RH  065%=      5-min Rain = 0
KDMS 141115Z 03012KT 19/12 A3026 RMK A01 T01900116  RH  064%=      5-min Rain = 0
KDMS 141120Z 03013KT 19/12 A3026 RMK A01 T01910117  RH  064%=      5-min Rain = 0
KDMS 141125Z 04012KT 19/12 A3026 RMK A01 T01920117  RH  064%=      5-min Rain = 0
KDMS 141130Z 04012G18KT 19/12 A3026 RMK A01 T01920117  RH  064%=      5-min Rain = 0
KDMS 141135Z 03014KT 19/12 A3026 RMK A01 T01930117  RH  064%=      5-min Rain = 0
KDMS 141140Z 03013KT 19/12 A3026 RMK A01 T01920117  RH  064%=      5-min Rain = 0
KDMS 141145Z 03015G20KT 19/12 A3026 RMK A01 T01890116  RH  065%=      5-min Rain = 0
KDMS 141150Z 03016G22KT 19/12 A3026 RMK A01 T01870116  RH  065%=      5-min Rain = 0
KDMS 141155Z 04013KT 19/12 A3026 RMK A01 T01870116  RH  065%=      5-min Rain = 0
KDMS 141200Z 04013G18KT 19/12 A3026 RMK A01 T01860115  RH  066%=      5-min Rain = 0
KDMS 141205Z 04012KT 19/12 A3027 RMK A01 T01850115  RH  066%=      5-min Rain = 0
KDMS 141210Z 03013KT 19/12 A3027 RMK A01 T01850116  RH  067%=      5-min Rain = 0
KDMS 141215Z 03013G18KT 19/12 A3028 RMK A01 T01850116  RH  067%=      5-min Rain = 0
KDMS 141220Z 03012KT 18/12 A3027 RMK A01 T01840117  RH  067%=      5-min Rain = 0
KDMS 141225Z 03012KT 19/12 A3028 RMK A01 T01850117  RH  067%=      5-min Rain = 0
KDMS 141230Z 03011KT 19/12 A3028 RMK A01 T01860118  RH  067%=      5-min Rain = 0
KDMS 141235Z 02009KT 19/12 A3029 RMK A01 T01860118  RH  067%=      5-min Rain = 0
KDMS 141240Z 02009KT 19/12 A3029 RMK A01 T01870119  RH  067%=      5-min Rain = 0
KDMS 141245Z 03008KT 19/12 A303 RMK A01 T01880119  RH  067%=      5-min Rain = 0
KDMS 141250Z 02007KT 19/12 A303 RMK A01 T01890120  RH  066%=      5-min Rain = 0
KDMS 141255Z 01008KT 19/12 A3031 RMK A01 T01910120  RH  066%=      5-min Rain = 0
KDMS 141300Z 00007KT 19/12 A3032 RMK A01 T01920121  RH  066%=      5-min Rain = 0
KDMS 141305Z 01008KT 20/12 A3032 RMK A01 T01950121  RH  064%=      5-min Rain = 0
KDMS 141310Z 00008KT 20/12 A3032 RMK A01 T01980120  RH  063%=      5-min Rain = 0
KDMS 141315Z 36007KT 20/12 A3032 RMK A01 T01990121  RH  063%=      5-min Rain = 0
KDMS 141320Z 00007KT 20/12 A3032 RMK A01 T01990121  RH  063%=      5-min Rain = 0
KDMS 141325Z 36009G14KT 20/12 A3032 RMK A01 T02020117  RH  060%=      5-min Rain = 0
KDMS 141330Z 36010KT 21/11 A3033 RMK A01 T02070112  RH  056%=      5-min Rain = 0
KDMS 141335Z 01011KT 21/11 A3032 RMK A01 T02060111  RH  056%=      5-min Rain = 0
KDMS 141340Z 01010KT 21/11 A3032 RMK A01 T02060111  RH  057%=      5-min Rain = 0
KDMS 141345Z 01009KT 20/11 A3031 RMK A01 T02040112  RH  057%=      5-min Rain = 0
KDMS 141350Z 02008KT 20/11 A3031 RMK A01 T02030112  RH  058%=      5-min Rain = 0
KDMS 141355Z 02007KT 20/11 A3031 RMK A01 T02020113  RH  058%=      5-min Rain = 0
KDMS 141400Z 01005KT 20/11 A3031 RMK A01 T02010114  RH  059%=      5-min Rain = 0
KDMS 141405Z 01006KT 20/11 A303 RMK A01 T01990114  RH  060%=      5-min Rain = 0
KDMS 141410Z 03004KT 20/11 A303 RMK A01 T01980114  RH  060%=      5-min Rain = 0
KDMS 141415Z 09003KT 20/11 A303 RMK A01 T01980114  RH  061%=      5-min Rain = 0
KDMS 141420Z 13003KT 20/12 A3029 RMK A01 T01980115  RH  061%=      5-min Rain = 0
KDMS 141425Z 15005KT 20/12 A3029 RMK A01 T01980115  RH  061%=      5-min Rain = 0
KDMS 141430Z 17006KT 20/12 A3029 RMK A01 T01970119  RH  063%=      5-min Rain = 0
KDMS 141435Z 21009KT 20/12 A303 RMK A01 T01960123  RH  065%=      5-min Rain = 0
KDMS 141440Z 18009KT 20/12 A3028 RMK A01 T01970121  RH  064%=      5-min Rain = 0
KDMS 141445Z 18009KT 20/12 A3028 RMK A01 T01980121  RH  064%=      5-min Rain = 0
KDMS 141450Z 19009G14KT 20/12 A3028 RMK A01 T01990121  RH  063%=      5-min Rain = 0
KDMS 141455Z 13007KT 20/12 A3027 RMK A01 T01990120  RH  063%=      5-min Rain = 0
KDMS 141500Z 16010KT 20/12 A3027 RMK A01 T02010122  RH  063%=      5-min Rain = 0
KDMS 141505Z 14007KT 20/12 A3026 RMK A01 T02030121  RH  061%=      5-min Rain = 0
KDMS 141510Z 16007KT 21/12 A3026 RMK A01 T02050121  RH  061%=      5-min Rain = 0
KDMS 141515Z 17007KT 21/12 A3025 RMK A01 T02060122  RH  061%=      5-min Rain = 0
KDMS 141520Z 18007KT 21/12 A3025 RMK A01 T02080121  RH  060%=      5-min Rain = 0
KDMS 141525Z 18007KT 21/12 A3025 RMK A01 T02100123  RH  060%=      5-min Rain = 0
KDMS 141530Z 18007KT 21/12 A3025 RMK A01 T02140124  RH  059%=      5-min Rain = 0
KDMS 141535Z 12005KT 22/12 A3025 RMK A01 T02190123  RH  056%=      5-min Rain = 0
KDMS 141540Z 09010G15KT 23/12 A3025 RMK A01 T02290122  RH  053%=      5-min Rain = 0
KDMS 141545Z 10010KT 23/12 A3025 RMK A01 T02290117  RH  051%=      5-min Rain = 0
KDMS 141550Z 13007KT 23/12 A3026 RMK A01 T02290119  RH  052%=      5-min Rain = 0
KDMS 141555Z 11005KT 24/12 A3027 RMK A01 T02350120  RH  050%=      5-min Rain = 0
KDMS 141600Z 10006G11KT 24/12 A3027 RMK A01 T02390123  RH  050%=      5-min Rain = 0
KDMS 141605Z 10006KT 25/12 A3027 RMK A01 T02460120  RH  047%=      5-min Rain = 0
KDMS 141610Z 09008KT 25/12 A3026 RMK A01 T02520118  RH  045%=      5-min Rain = 0
KDMS 141615Z 10009KT 26/12 A3026 RMK A01 T02570119  RH  044%=      5-min Rain = 0
KDMS 141620Z 09009KT 26/12 A3026 RMK A01 T02600115  RH  042%=      5-min Rain = 0
KDMS 141625Z 09009KT 26/11 A3026 RMK A01 T02630113  RH  040%=      5-min Rain = 0
KDMS 141630Z 06007KT 27/11 A3026 RMK A01 T02680107  RH  038%=      5-min Rain = 0
KDMS 141635Z 07008KT 27/10 A3026 RMK A01 T02710102  RH  036%=      5-min Rain = 0
KDMS 141640Z 06006KT 27/10 A3026 RMK A01 T02680104  RH  037%=      5-min Rain = 0
KDMS 141645Z 05009KT 28/10 A3026 RMK A01 T02760102  RH  035%=      5-min Rain = 0
KDMS 141650Z 03007KT 28/11 A3026 RMK A01 T02800106  RH  035%=      5-min Rain = 0
KDMS 141655Z 02008KT 28/11 A3026 RMK A01 T02810106  RH  035%=      5-min Rain = 0
KDMS 141700Z 03012KT 28/11 A3027 RMK A01 T02830106  RH  034%=      5-min Rain = 0
KDMS 141705Z 03011G16KT 29/11 A3027 RMK A01 T02860106  RH  034%=      5-min Rain = 0
KDMS 141710Z 03008G14KT 29/11 A3026 RMK A01 T02920105  RH  032%=      5-min Rain = 0
KDMS 141715Z 02013G19KT 30/10 A3026 RMK A01 T02960104  RH  031%=      5-min Rain = 0
KDMS 141720Z 02016G24KT 30/10 A3026 RMK A01 T02970104  RH  031%=      5-min Rain = 0
KDMS 141725Z 02017G23KT 30/10 A3026 RMK A01 T02950103  RH  031%=      5-min Rain = 0
KDMS 141730Z 01016KT 30/11 A3026 RMK A01 T02980105  RH  031%=      5-min Rain = 0
KDMS 141735Z 02015G21KT 30/11 A3026 RMK A01 T02960111  RH  033%=      5-min Rain = 0
KDMS 141740Z 02013G21KT 30/12 A3026 RMK A01 T02960117  RH  034%=      5-min Rain = 0
KDMS 141745Z 02016G22KT 29/12 A3026 RMK A01 T02940123  RH  036%=      5-min Rain = 0
KDMS 141750Z 02017G24KT 29/13 A3026 RMK A01 T02930126  RH  037%=      5-min Rain = 0
KDMS 141755Z 02016KT 29/13 A3026 RMK A01 T02920128  RH  038%=      5-min Rain = 0
KDMS 141800Z 02014G20KT 29/13 A3027 RMK A01 T02900125  RH  037%=      5-min Rain = 0
KDMS 141805Z 02014G21KT 29/12 A3027 RMK A01 T02900123  RH  037%=      5-min Rain = 0
KDMS 141810Z 02014G19KT 29/12 A3027 RMK A01 T02890118  RH  036%=      5-min Rain = 0
KDMS 141815Z 02015G21KT 29/12 A3027 RMK A01 T02910117  RH  035%=      5-min Rain = 0
KDMS 141820Z 02013G22KT 29/12 A3026 RMK A01 T02910116  RH  035%=      5-min Rain = 0
KDMS 141825Z 36011KT 29/11 A3026 RMK A01 T02890111  RH  034%=      5-min Rain = 0
KDMS 141830Z 01013KT 29/11 A3026 RMK A01 T02910112  RH  034%=      5-min Rain = 0
KDMS 141835Z 01009KT 29/11 A3026 RMK A01 T02880112  RH  035%=      5-min Rain = 0
KDMS 141840Z 04011G17KT 29/11 A3025 RMK A01 T02900114  RH  035%=      5-min Rain = 0
KDMS 141845Z 04010KT 30/11 A3025 RMK A01 T02960112  RH  033%=      5-min Rain = 0
KDMS 141850Z 04008G13KT 30/11 A3025 RMK A01 T02950112  RH  033%=      5-min Rain = 0
KDMS 141855Z 01009KT 30/11 A3024 RMK A01 T02950110  RH  033%=      5-min Rain = 0
KDMS 141900Z 03009KT 30/11 A3024 RMK A01 T02970114  RH  033%=      5-min Rain = 0
KDMS 141905Z 07007KT 30/11 A3023 RMK A01 T02970111  RH  033%=      5-min Rain = 0
KDMS 141910Z 04007KT 30/11 A3023 RMK A01 T02980109  RH  032%=      5-min Rain = 0
KDMS 141915Z 01006KT 30/11 A3023 RMK A01 T02990112  RH  033%=      5-min Rain = 0
KDMS 141920Z 02004G10KT 30/11 A3022 RMK A01 T02980111  RH  033%=      5-min Rain = 0
KDMS 141925Z 05007KT 30/11 A3022 RMK A01 T03030112  RH  032%=      5-min Rain = 0
KDMS 141930Z 05006KT 31/11 A3021 RMK A01 T03060110  RH  031%=      5-min Rain = 0
KDMS 141935Z 11006G11KT 31/11 A3021 RMK A01 T03080111  RH  031%=      5-min Rain = 0
KDMS 141940Z 15005G10KT 31/11 A302 RMK A01 T03060110  RH  031%=      5-min Rain = 0
KDMS 141945Z 12008KT 31/11 A302 RMK A01 T03130110  RH  030%=      5-min Rain = 0
KDMS 141950Z 08005KT 31/11 A3021 RMK A01 T03090107  RH  030%=      5-min Rain = 0
KDMS 141955Z 11002KT 31/11 A302 RMK A01 T03070107  RH  030%=      5-min Rain = 0
KDMS 142000Z 30000KT 31/10 A302 RMK A01 T03060104  RH  030%=      5-min Rain = 0
KDMS 142005Z 21002KT 31/11 A302 RMK A01 T03100105  RH  029%=      5-min Rain = 0
KDMS 142010Z 21005KT 31/10 A302 RMK A01 T03130104  RH  028%=      5-min Rain = 0
KDMS 142015Z 23005KT 32/10 A3019 RMK A01 T03150104  RH  028%=      5-min Rain = 0
KDMS 142020Z 18004KT 31/10 A3019 RMK A01 T03140104  RH  028%=      5-min Rain = 0
KDMS 142025Z 14005KT 32/11 A3019 RMK A01 T03150105  RH  028%=      5-min Rain = 0
KDMS 142030Z 14006G12KT 32/11 A3019 RMK A01 T03170105  RH  028%=      5-min Rain = 0
KDMS 142035Z 12005KT 32/11 A3018 RMK A01 T03180105  RH  028%=      5-min Rain = 0
KDMS 142040Z 10004KT 32/11 A3018 RMK A01 T03150106  RH  029%=      5-min Rain = 0
KDMS 142045Z 15006G11KT 32/11 A3018 RMK A01 T03190106  RH  028%=      5-min Rain = 0
KDMS 142050Z 13005KT 32/11 A3018 RMK A01 T03180105  RH  028%=      5-min Rain = 0
KDMS 142055Z 08006KT 32/11 A3018 RMK A01 T03170106  RH  028%=      5-min Rain = 0
KDMS 142100Z 12003G8KT 32/11 A3018 RMK A01 T03180106  RH  028%=      5-min Rain = 0
KDMS 142105Z 07002KT 32/11 A3018 RMK A01 T03220106  RH  027%=      5-min Rain = 0
KDMS 142110Z 01003KT 33/11 A3017 RMK A01 T03260105  RH  027%=      5-min Rain = 0
KDMS 142115Z 33002KT 32/11 A3017 RMK A01 T03240105  RH  027%=      5-min Rain = 0
KDMS 142120Z 34003KT 33/11 A3017 RMK A01 T03250105  RH  027%=      5-min Rain = 0
KDMS 142125Z 12003KT 33/11 A3017 RMK A01 T03270105  RH  027%=      5-min Rain = 0
KDMS 142130Z 15004KT 33/11 A3016 RMK A01 T03260106  RH  027%=      5-min Rain = 0
KDMS 142135Z 12006KT 33/11 A3016 RMK A01 T03300105  RH  026%=      5-min Rain = 0
KDMS 142140Z 09004KT 32/10 A3016 RMK A01 T03230104  RH  027%=      5-min Rain = 0
KDMS 142145Z 19002KT 32/10 A3016 RMK A01 T03230104  RH  027%=      5-min Rain = 0
KDMS 142150Z 26002G7KT 32/10 A3015 RMK A01 T03240103  RH  027%=      5-min Rain = 0
KDMS 142155Z 22001KT 32/10 A3015 RMK A01 T03230104  RH  027%=      5-min Rain = 0
KDMS 142200Z 11002KT 33/10 A3015 RMK A01 T03280103  RH  026%=      5-min Rain = 0
KDMS 142205Z 02003G12KT 33/10 A3014 RMK A01 T03260104  RH  026%=      5-min Rain = 0
KDMS 142210Z 17004KT 33/11 A3015 RMK A01 T03320108  RH  026%=      5-min Rain = 0
KDMS 142215Z 17006G13KT 33/11 A3014 RMK A01 T03310112  RH  027%=      5-min Rain = 0
KDMS 142220Z 16008G15KT 33/11 A3014 RMK A01 T03320111  RH  027%=      5-min Rain = 0
KDMS 142225Z 17010KT 33/11 A3014 RMK A01 T03290112  RH  027%=      5-min Rain = 0
KDMS 142230Z 15006G12KT 33/11 A3014 RMK A01 T03260112  RH  028%=      5-min Rain = 0
KDMS 142235Z 16008KT 32/11 A3014 RMK A01 T03240113  RH  029%=      5-min Rain = 0
KDMS 142240Z 19009G18KT 33/11 A3014 RMK A01 T03260113  RH  028%=      5-min Rain = 0
KDMS 142245Z 20008KT 33/11 A3014 RMK A01 T03260112  RH  028%=      5-min Rain = 0
KDMS 142250Z 22006G11KT 32/11 A3014 RMK A01 T03240112  RH  028%=      5-min Rain = 0
KDMS 142255Z 19007G12KT 33/11 A3014 RMK A01 T03270112  RH  028%=      5-min Rain = 0
KDMS 142300Z 20008KT 32/11 A3014 RMK A01 T03240111  RH  028%=      5-min Rain = 0
KDMS 142305Z 19004G9KT 32/11 A3014 RMK A01 T03220112  RH  029%=      5-min Rain = 0
KDMS 142310Z 20008KT 33/11 A3014 RMK A01 T03260113  RH  028%=      5-min Rain = 0
KDMS 142315Z 18008G13KT 33/11 A3014 RMK A01 T03280113  RH  028%=      5-min Rain = 0
KDMS 142320Z 19007KT 33/11 A3014 RMK A01 T03260113  RH  028%=      5-min Rain = 0
KDMS 142325Z 17007G12KT 33/11 A3013 RMK A01 T03250112  RH  028%=      5-min Rain = 0
KDMS 142330Z 17007KT 33/11 A3013 RMK A01 T03250113  RH  028%=      5-min Rain = 0
KDMS 142335Z 18008KT 32/11 A3013 RMK A01 T03240112  RH  028%=      5-min Rain = 0
KDMS 142340Z 16008G13KT 32/11 A3013 RMK A01 T03230111  RH  028%=      5-min Rain = 0
KDMS 142345Z 18009KT 32/11 A3013 RMK A01 T03240112  RH  028%=      5-min Rain = 0
KDMS 142350Z 17008KT 32/11 A3013 RMK A01 T03240113  RH  028%=      5-min Rain = 0
KDMS 142355Z 17008KT 32/11 A3013 RMK A01 T03210111  RH  028%=      5-min Rain = 0
KDMS 150000Z 17007KT 32/11 A3013 RMK A01 T03200110  RH  028%=      5-min Rain = 0
KDMS 150005Z 15009KT 32/11 A3013 RMK A01 T03200109  RH  028%=      5-min Rain = 0
KDMS 150010Z 14007KT 32/11 A3013 RMK A01 T03200109  RH  028%=      5-min Rain = 0
KDMS 150015Z 16007KT 32/11 A3013 RMK A01 T03230109  RH  028%=      5-min Rain = 0
KDMS 150020Z 16007KT 32/11 A3013 RMK A01 T03220108  RH  028%=      5-min Rain = 0
KDMS 150025Z 16007KT 32/11 A3013 RMK A01 T03200108  RH  028%=      5-min Rain = 0
KDMS 150030Z 15007KT 32/11 A3013 RMK A01 T03180110  RH  029%=      5-min Rain = 0
KDMS 150035Z 16008KT 32/11 A3013 RMK A01 T03180111  RH  029%=      5-min Rain = 0
KDMS 150040Z 16007KT 32/11 A3013 RMK A01 T03160109  RH  029%=      5-min Rain = 0
KDMS 150045Z 16008KT 32/11 A3014 RMK A01 T03160109  RH  029%=      5-min Rain = 0
KDMS 150050Z 16007KT 31/11 A3014 RMK A01 T03120109  RH  030%=      5-min Rain = 0
KDMS 150055Z 15008KT 31/11 A3014 RMK A01 T03090108  RH  030%=      5-min Rain = 0
KDMS 150100Z 16007KT 31/11 A3014 RMK A01 T03070108  RH  030%=      5-min Rain = 0
KDMS 150105Z 15007KT 30/11 A3014 RMK A01 T03040108  RH  031%=      5-min Rain = 0
KDMS 150110Z 15008KT 30/11 A3015 RMK A01 T03020106  RH  031%=      5-min Rain = 0
KDMS 150115Z 15007KT 30/11 A3015 RMK A01 T03010106  RH  031%=      5-min Rain = 0
KDMS 150120Z 15006KT 30/11 A3015 RMK A01 T02980107  RH  032%=      5-min Rain = 0
KDMS 150125Z 15006KT 30/11 A3015 RMK A01 T02950107  RH  032%=      5-min Rain = 0
KDMS 150130Z 14007KT 29/11 A3015 RMK A01 T02930107  RH  033%=      5-min Rain = 0
KDMS 150135Z 14006KT 29/11 A3016 RMK A01 T02910106  RH  033%=      5-min Rain = 0
KDMS 150140Z 15006KT 29/11 A3016 RMK A01 T02890107  RH  033%=      5-min Rain = 0
KDMS 150145Z 15006KT 29/11 A3016 RMK A01 T02870107  RH  034%=      5-min Rain = 0
KDMS 150150Z 14006KT 28/11 A3016 RMK A01 T02840107  RH  034%=      5-min Rain = 0
KDMS 150155Z 14005KT 28/11 A3016 RMK A01 T02810108  RH  035%=      5-min Rain = 0
KDMS 150200Z 13005KT 28/11 A3016 RMK A01 T02780106  RH  035%=      5-min Rain = 0
KDMS 150205Z 14005KT 28/11 A3016 RMK A01 T02750105  RH  036%=      5-min Rain = 0
KDMS 150210Z 14005KT 27/11 A3016 RMK A01 T02720105  RH  036%=      5-min Rain = 0
KDMS 150215Z 14006KT 27/10 A3017 RMK A01 T02690104  RH  037%=      5-min Rain = 0
KDMS 150220Z 15005KT 27/10 A3017 RMK A01 T02680104  RH  037%=      5-min Rain = 0
KDMS 150225Z 15005KT 27/10 A3017 RMK A01 T02670104  RH  037%=      5-min Rain = 0
KDMS 150230Z 15005KT 27/10 A3017 RMK A01 T02660104  RH  037%=      5-min Rain = 0
KDMS 150235Z 16005KT 26/10 A3017 RMK A01 T02630103  RH  038%=      5-min Rain = 0
KDMS 150240Z 15006KT 26/11 A3017 RMK A01 T02600108  RH  040%=      5-min Rain = 0
KDMS 150245Z 15006KT 26/11 A3017 RMK A01 T02560112  RH  042%=      5-min Rain = 0
KDMS 150250Z 14006KT 26/11 A3017 RMK A01 T02550110  RH  042%=      5-min Rain = 0
KDMS 150255Z 14005KT 26/11 A3018 RMK A01 T02570108  RH  040%=      5-min Rain = 0
KDMS 150300Z 14005KT 26/11 A3018 RMK A01 T02590106  RH  039%=      5-min Rain = 0
KDMS 150305Z 14006KT 26/11 A3018 RMK A01 T02580105  RH  039%=      5-min Rain = 0
KDMS 150310Z 14006KT 26/10 A3018 RMK A01 T02570104  RH  040%=      5-min Rain = 0
KDMS 150315Z 14006KT 26/11 A3019 RMK A01 T02550110  RH  042%=      5-min Rain = 0
KDMS 150320Z 12007KT 25/11 A3019 RMK A01 T02530112  RH  043%=      5-min Rain = 0
KDMS 150325Z 12008KT 26/12 A3019 RMK A01 T02550119  RH  044%=      5-min Rain = 0
KDMS 150330Z 12008KT 26/12 A3019 RMK A01 T02550119  RH  044%=      5-min Rain = 0
KDMS 150335Z 12007KT 25/12 A3019 RMK A01 T02540119  RH  045%=      5-min Rain = 0
KDMS 150340Z 12007KT 25/12 A3019 RMK A01 T02520119  RH  045%=      5-min Rain = 0
KDMS 150345Z 11007KT 25/12 A302 RMK A01 T02490120  RH  046%=      5-min Rain = 0
KDMS 150350Z 12007KT 25/12 A302 RMK A01 T02470119  RH  046%=      5-min Rain = 0
KDMS 150355Z 12007KT 25/12 A302 RMK A01 T02480120  RH  046%=      5-min Rain = 0
KDMS 150400Z 13006KT 25/12 A302 RMK A01 T02490120  RH  046%=      5-min Rain = 0
KDMS 150405Z 13006KT 25/12 A3021 RMK A01 T02500120  RH  046%=      5-min Rain = 0
KDMS 150410Z 13007KT 25/12 A3021 RMK A01 T02510121  RH  046%=      5-min Rain = 0
KDMS 150415Z 12007KT 25/12 A3021 RMK A01 T02520123  RH  046%=      5-min Rain = 0
KDMS 150420Z 12007KT 25/13 A3021 RMK A01 T02520125  RH  047%=      5-min Rain = 0
KDMS 150425Z 12007KT 25/13 A302 RMK A01 T02510126  RH  047%=      5-min Rain = 0
KDMS 150430Z 12008KT 25/13 A302 RMK A01 T02500126  RH  048%=      5-min Rain = 0
KDMS 150435Z 12009KT 25/13 A302 RMK A01 T02500127  RH  048%=      5-min Rain = 0
KDMS 150440Z 12009KT 25/13 A302 RMK A01 T02500129  RH  049%=      5-min Rain = 0
KDMS 150445Z 12010KT 25/13 A302 RMK A01 T02500130  RH  049%=      5-min Rain = 0
KDMS 150450Z 13010KT 25/13 A302 RMK A01 T02500131  RH  050%=      5-min Rain = 0
KDMS 150455Z 12009KT 25/13 A302 RMK A01 T02510132  RH  050%=      5-min Rain = 0

Page generated in 0.011 seconds.